Time;durP1;ratioP1;P1;durP2;ratioP2;P2;SDS_P1;SDS_P2;PMS_P1;PMS_P2;Temp;Humidity;BMP_temperature;BMP_pressure;BME280_temperature;BME280_humidity;BME280_pressure;Samples;Min_cycle;Max_cycle;Signal;HPM_P1;HPM_P2
2022/02/09 00:00:19;;;;;;;8.70;5.07;;;5.70;93.90;;;;;;5013297;28;20045;-68
2022/02/09 00:03:27;;;;;;;9.80;5.82;;;5.70;93.90;;;;;;5013672;28;20042;-67
2022/02/09 00:07:09;;;;;;;17.58;9.52;;;5.70;93.40;;;;;;5013282;28;20042;-68
2022/02/09 00:10:00;;;;;;;15.77;10.82;;;5.80;93.20;;;;;;5013305;28;20037;-67
2022/02/09 00:13:30;;;;;;;10.90;4.30;;;5.90;93.00;;;;;;5013375;28;20044;-68
2022/02/09 00:20:27;;;;;;;8.10;4.28;;;5.20;97.10;;;;;;5012998;28;20045;-67
2022/02/09 01:57:04;;;;;;;15.15;9.23;;;3.80;99.90;;;;;;5011775;28;20053;-68
2022/02/09 02:00:08;;;;;;;15.93;9.63;;;3.80;99.90;;;;;;5010984;28;20493;-66
2022/02/09 02:03:13;;;;;;;14.93;9.07;;;3.80;99.90;;;;;;5011596;28;20500;-68
2022/02/09 02:06:18;;;;;;;16.15;9.88;;;3.90;99.90;;;;;;5011683;28;20480;-68
2022/02/09 02:09:27;;;;;;;18.52;10.27;;;4.00;99.90;;;;;;5011942;28;20037;-68
2022/02/09 02:12:35;;;;;;;20.65;11.35;;;3.90;99.90;;;;;;5011763;28;20052;-68
2022/02/09 02:22:45;;;;;;;19.98;12.00;;;3.60;99.90;;;;;;5011335;28;20033;-68
2022/02/09 02:39:47;;;;;;;29.60;15.90;;;3.00;99.90;;;;;;5020792;28;20041;-67
2022/02/09 03:15:53;;;;;;;27.50;14.95;;;2.50;99.90;;;;;;5010263;28;20049;-67
2022/02/09 03:19:18;;;;;;;29.45;15.50;;;2.50;99.90;;;;;;5010011;28;20492;-67
2022/02/09 03:22:47;;;;;;;27.70;16.58;;;2.40;99.90;;;;;;5010762;28;20052;-68
2022/02/09 03:58:55;;;;;;;28.00;14.40;;;2.70;99.90;;;;;;5010068;28;20041;-68
2022/02/09 04:02:00;;;;;;;24.33;14.15;;;2.60;99.90;;;;;;5010701;28;20087;-68
2022/02/09 04:05:05;;;;;;;26.50;13.68;;;2.60;99.90;;;;;;5010035;28;20523;-68
2022/02/09 04:08:14;;;;;;;25.33;14.60;;;2.60;99.90;;;;;;5009517;28;20053;-68
2022/02/09 04:11:25;;;;;;;29.55;14.40;;;2.50;99.90;;;;;;5010161;28;20045;-68
2022/02/09 04:14:51;;;;;;;31.98;14.95;;;2.50;99.90;;;;;;5009822;28;20381;-68
2022/02/09 04:48:24;;;;;;;32.03;15.60;;;2.20;99.90;;;;;;5011114;28;20053;-67
2022/02/09 04:54:34;;;;;;;29.98;16.10;;;2.10;99.90;;;;;;5013140;28;20495;-68
2022/02/09 04:57:45;;;;;;;25.48;13.93;;;2.00;99.90;;;;;;5013057;28;20037;-68
2022/02/09 05:27:16;;;;;;;18.20;9.50;;;1.90;99.90;;;;;;5011985;28;20049;-67
2022/02/09 05:30:21;;;;;;;18.67;9.82;;;2.00;99.90;;;;;;5011443;28;20049;-67
2022/02/09 05:33:26;;;;;;;16.40;9.50;;;2.30;99.90;;;;;;5012791;28;20053;-68
2022/02/09 05:36:30;;;;;;;17.48;9.55;;;2.40;99.90;;;;;;5012094;28;20053;-67
2022/02/09 05:39:34;;;;;;;18.85;10.45;;;2.40;99.90;;;;;;5011812;28;20048;-67
2022/02/09 05:42:39;;;;;;;21.75;11.38;;;2.40;99.90;;;;;;5011504;28;20049;-67
2022/02/09 05:55:38;;;;;;;49.90;21.38;;;1.80;99.90;;;;;;5011564;28;20057;-69
2022/02/09 05:58:49;;;;;;;47.75;20.08;;;1.70;99.90;;;;;;5011055;28;20499;-70
2022/02/09 06:01:55;;;;;;;41.28;19.17;;;1.50;99.90;;;;;;5012069;28;20416;-70
2022/02/09 06:04:59;;;;;;;37.42;17.83;;;1.50;99.90;;;;;;5012040;28;20385;-70
2022/02/09 06:08:04;;;;;;;47.22;19.02;;;1.40;99.90;;;;;;5011320;28;20583;-70
2022/02/09 06:21:02;;;;;;;;;;;1.10;99.90;;;;;;5013111;28;20049;-70
2022/02/09 06:24:06;;;;;;;28.27;14.98;;;1.00;99.90;;;;;;5011321;28;19928;-70
2022/02/09 06:27:11;;;;;;;29.13;16.80;;;1.00;99.90;;;;;;5012336;28;20062;-70
2022/02/09 06:30:16;;;;;;;32.10;15.48;;;1.00;99.90;;;;;;5010365;28;20049;-70
2022/02/09 06:33:20;;;;;;;30.27;15.70;;;1.00;99.90;;;;;;5012563;28;20504;-70
2022/02/09 06:36:26;;;;;;;30.38;15.73;;;1.10;99.90;;;;;;5011425;28;20045;-70
2022/02/09 06:39:31;;;;;;;33.33;18.15;;;1.30;99.90;;;;;;5010996;28;20056;-70
2022/02/09 06:42:35;;;;;;;31.23;17.10;;;1.60;99.90;;;;;;5011020;28;20384;-70
2022/02/09 06:45:42;;;;;;;29.52;15.93;;;2.00;99.90;;;;;;5012572;28;20049;-70
2022/02/09 06:48:46;;;;;;;28.98;14.77;;;2.30;99.90;;;;;;5011266;28;20056;-70
2022/02/09 06:51:50;;;;;;;30.00;15.95;;;2.60;99.90;;;;;;5017136;28;20412;-70
2022/02/09 06:55:18;;;;;;;25.30;14.77;;;2.90;99.90;;;;;;5029225;28;20663;-70
2022/02/09 06:58:42;;;;;;;24.10;14.57;;;3.30;99.90;;;;;;5020474;28;20388;-70
2022/02/09 07:01:45;;;;;;;21.48;13.60;;;4.60;99.90;;;;;;5026950;28;20041;-70
2022/02/09 07:04:49;;;;;;;26.55;14.15;;;7.30;99.90;;;;;;5028935;28;20396;-70
2022/02/09 07:07:53;;;;;;;27.45;14.63;;;9.20;99.90;;;;;;5026807;28;20044;-68
2022/02/09 07:10:57;;;;;;;25.20;13.95;;;11.00;99.90;;;;;;5028298;28;20048;-68
2022/02/09 07:14:01;;;;;;;37.97;17.63;;;12.50;99.30;;;;;;5030435;28;20484;-67
2022/02/09 07:17:05;;;;;;;31.13;15.07;;;13.80;97.30;;;;;;5029026;28;20052;-68
2022/02/09 07:20:20;;;;;;;23.45;13.55;;;13.90;95.10;;;;;;5029049;28;20043;-68
2022/02/09 07:23:40;;;;;;;22.63;12.95;;;12.50;95.30;;;;;;5012387;28;20385;-69
2022/02/09 07:29:50;;;;;;;22.90;14.43;;;8.90;98.80;;;;;;5025600;28;20052;-68
2022/02/09 07:32:57;;;;;;;21.38;14.15;;;7.60;99.90;;;;;;5025977;28;20049;-68
2022/02/09 07:36:02;;;;;;;25.50;13.45;;;6.30;99.90;;;;;;5028228;28;20048;-70
2022/02/09 07:39:11;;;;;;;21.73;13.23;;;5.10;99.90;;;;;;5027716;28;20044;-69
2022/02/09 07:42:23;;;;;;;22.60;13.82;;;4.40;99.90;;;;;;5021632;28;20044;-68
2022/02/09 07:52:07;;;;;;;22.85;13.80;;;4.40;99.90;;;;;;5026932;28;20377;-69
2022/02/09 07:55:10;;;;;;;33.27;15.17;;;4.70;99.90;;;;;;5028090;28;20045;-69
2022/02/09 07:58:14;;;;;;;27.48;15.50;;;4.90;99.90;;;;;;5026850;28;20385;-69
2022/02/09 08:01:19;;;;;;;23.35;14.02;;;4.90;99.90;;;;;;5029419;28;20040;-69
2022/02/09 08:04:23;;;;;;;23.13;13.85;;;5.00;99.90;;;;;;5022595;28;20064;-69
2022/02/09 08:07:28;;;;;;;25.42;13.70;;;5.20;99.90;;;;;;5021964;28;20053;-69
2022/02/09 08:10:48;;;;;;;29.10;13.43;;;5.30;99.90;;;;;;5029713;28;20037;-69
2022/02/09 08:22:38;;;;;;;40.05;19.73;;;5.80;99.90;;;;;;5033730;28;20072;-69
2022/02/09 08:27:56;;;;;;;;;;;5.70;99.90;;;;;;5032216;28;20040;-69
2022/02/09 08:31:22;;;;;;;40.25;19.13;;;5.60;99.90;;;;;;5030137;28;19919;-68
2022/02/09 08:34:24;;;;;;;40.47;21.00;;;5.70;99.90;;;;;;5029983;28;20048;-69
2022/02/09 08:37:29;;;;;;;41.20;22.45;;;6.20;99.90;;;;;;5028833;28;20494;-69
2022/02/09 08:40:35;;;;;;;22.10;12.45;;;6.40;99.90;;;;;;5031612;28;20062;-69
2022/02/09 08:43:39;;;;;;;25.30;12.45;;;6.80;99.90;;;;;;5029504;28;20052;-69
2022/02/09 08:46:45;;;;;;;21.58;12.13;;;7.30;99.90;;;;;;5031562;28;20488;-69
2022/02/09 08:49:50;;;;;;;20.60;12.95;;;7.60;99.90;;;;;;5027612;28;20388;-69
2022/02/09 08:52:54;;;;;;;24.85;13.57;;;7.80;99.90;;;;;;5031114;28;20495;-69
2022/02/09 08:55:58;;;;;;;24.73;14.40;;;8.70;99.90;;;;;;5032544;28;20052;-69
2022/02/09 08:59:02;;;;;;;25.98;13.70;;;9.30;99.90;;;;;;5032188;28;20044;-69
2022/02/09 09:02:11;;;;;;;22.00;13.07;;;10.30;99.90;;;;;;5030506;28;20053;-69
2022/02/09 09:05:22;;;;;;;24.13;13.45;;;13.20;99.90;;;;;;5021395;28;20053;-69
2022/02/09 09:19:10;;;;;;;30.77;18.25;;;16.30;95.30;;;;;;5032389;28;20057;-69
2022/02/09 10:02:50;;;;;;;42.70;24.55;;;20.80;93.50;;;;;;5031583;28;20544;-70
2022/02/09 10:33:14;;;;;;;10.40;2.50;;;33.50;65.90;;;;;;5030229;28;20040;-68
2022/02/09 10:36:20;;;;;;;8.55;3.20;;;34.90;61.20;;;;;;5024239;28;20040;-69
2022/02/09 10:43:01;;;;;;;9.63;2.72;;;35.10;59.50;;;;;;5028350;28;20044;-69
2022/02/09 10:46:16;;;;;;;7.95;2.28;;;34.40;58.00;;;;;;5030680;28;20048;-69
2022/02/09 10:49:23;;;;;;;12.90;3.08;;;33.10;59.60;;;;;;5024612;28;20064;-69
2022/02/09 10:52:40;;;;;;;8.45;2.33;;;34.20;58.80;;;;;;5028235;28;20060;-69
2022/02/09 10:55:47;;;;;;;6.90;2.17;;;33.80;57.70;;;;;;5030716;28;20064;-69
2022/02/09 10:58:54;;;;;;;9.77;2.35;;;33.90;57.60;;;;;;5026006;28;20057;-70
2022/02/09 11:02:01;;;;;;;6.55;2.35;;;35.60;56.60;;;;;;5030062;28;20031;-69
2022/02/09 11:05:06;;;;;;;10.68;3.10;;;37.00;55.10;;;;;;5031233;28;20491;-68
2022/02/09 11:08:12;;;;;;;10.48;2.72;;;36.50;53.80;;;;;;5025827;28;20048;-69
2022/02/09 11:11:16;;;;;;;9.10;3.33;;;35.70;54.60;;;;;;5023648;28;20048;-69
2022/02/09 11:14:22;;;;;;;9.10;2.83;;;36.10;54.10;;;;;;5024995;28;20040;-69
2022/02/09 11:17:28;;;;;;;8.00;2.75;;;34.20;54.00;;;;;;5028065;28;20072;-69
2022/02/09 11:20:59;;;;;;;8.68;3.08;;;33.20;55.70;;;;;;5021394;28;20060;-69
2022/02/09 11:24:22;;;;;;;;;;;33.50;55.00;;;;;;5029735;28;20064;-70
2022/02/09 11:27:34;;;;;;;6.30;2.83;;;32.70;55.60;;;;;;5022606;28;19924;-69
2022/02/09 11:30:45;;;;;;;11.48;3.38;;;33.40;55.10;;;;;;5029878;28;20076;-69
2022/02/09 11:33:56;;;;;;;8.75;2.20;;;34.50;54.10;;;;;;5029985;28;20041;-70
2022/02/09 11:37:11;;;;;;;7.05;2.65;;;35.60;52.90;;;;;;5033676;28;20512;-70
2022/02/09 11:40:49;;;;;;;8.10;2.85;;;36.00;52.60;;;;;;5033190;28;20060;-70
2022/02/09 12:11:07;;;;;;;10.25;3.10;;;33.60;52.60;;;;;;5033445;28;20040;-70
2022/02/09 12:18:28;;;;;;;12.98;2.92;;;36.60;51.00;;;;;;5030887;28;20388;-69
2022/02/09 12:24:57;;;;;;;10.82;3.13;;;34.30;52.70;;;;;;5031975;28;20044;-69
2022/02/09 12:28:02;;;;;;;7.07;2.60;;;35.20;51.70;;;;;;5031821;28;20499;-70
2022/02/09 12:31:12;;;;;;;8.02;2.70;;;35.90;51.90;;;;;;5032911;28;20041;-69
2022/02/09 12:34:23;;;;;;;6.28;2.30;;;36.50;51.10;;;;;;5029872;28;20053;-70
2022/02/09 12:37:32;;;;;;;7.93;2.42;;;35.10;50.40;;;;;;5029778;28;20129;-69
2022/02/09 12:40:38;;;;;;;8.40;3.08;;;34.60;50.70;;;;;;5028007;28;20045;-70
2022/02/09 12:43:46;;;;;;;7.93;2.40;;;34.00;51.90;;;;;;5026208;28;20041;-69
2022/02/09 12:46:51;;;;;;;9.23;2.92;;;34.40;51.40;;;;;;5026440;28;20040;-69
2022/02/09 12:49:55;;;;;;;11.30;2.92;;;33.90;51.70;;;;;;5031567;28;20048;-69
2022/02/09 12:53:00;;;;;;;12.43;3.33;;;32.00;52.80;;;;;;5026736;28;20037;-69
2022/02/09 12:56:25;;;;;;;12.23;3.03;;;32.20;53.60;;;;;;5025069;28;20529;-72
2022/02/09 12:59:29;;;;;;;12.05;2.67;;;32.40;53.10;;;;;;5030009;28;20056;-71
2022/02/09 13:02:46;;;;;;;10.93;3.22;;;31.30;53.50;;;;;;5022214;28;20053;-71
2022/02/09 13:05:55;;;;;;;11.80;3.50;;;29.00;54.70;;;;;;5023787;28;20044;-69
2022/02/09 13:09:02;;;;;;;13.25;2.92;;;26.40;56.50;;;;;;5019801;28;20060;-69
2022/02/09 13:12:07;;;;;;;10.02;2.97;;;27.00;57.30;;;;;;5022965;28;20072;-68
2022/02/09 13:15:26;;;;;;;11.35;2.83;;;28.10;55.90;;;;;;5023602;28;20060;-71
2022/02/09 13:53:43;;;;;;;10.23;2.55;;;27.00;55.20;;;;;;5028709;28;20504;-68
2022/02/09 14:10:51;;;;;;;16.40;3.40;;;26.40;56.60;;;;;;5030308;28;20040;-67
2022/02/09 14:17:20;;;;;;;9.75;2.90;;;26.30;57.20;;;;;;5028624;28;20039;-68
2022/02/09 14:31:36;;;;;;;12.02;4.40;;;26.10;57.10;;;;;;5029037;28;20040;-68
2022/02/09 14:49:11;;;;;;;7.57;2.13;;;26.70;55.80;;;;;;5030946;28;20060;-68
2022/02/09 14:51:52;;;;;;;9.65;3.10;;;26.30;56.90;;;;;;5029962;28;20044;-65
2022/02/09 14:55:10;;;;;;;9.38;2.63;;;26.00;57.30;;;;;;5028942;28;20499;-68
2022/02/09 14:58:24;;;;;;;9.20;3.00;;;24.80;58.30;;;;;;5030292;28;20044;-68
2022/02/09 15:01:45;;;;;;;11.23;2.88;;;24.90;58.50;;;;;;5031191;28;20271;-68
2022/02/09 15:08:34;;;;;;;10.68;2.60;;;24.30;58.70;;;;;;5029203;28;20048;-68
2022/02/09 15:11:56;;;;;;;;;;;23.70;59.30;;;;;;5029424;28;20041;-68
2022/02/09 15:15:23;;;;;;;12.70;3.30;;;23.70;60.30;;;;;;5030083;28;19940;-68
2022/02/09 15:25:18;;;;;;;13.25;4.28;;;24.00;60.40;;;;;;5030723;28;20037;-67
2022/02/09 15:28:23;;;;;;;10.30;4.20;;;23.60;61.50;;;;;;5028883;28;20057;-67
2022/02/09 15:31:43;;;;;;;8.60;3.47;;;23.50;62.20;;;;;;5029775;28;20049;-67
2022/02/09 15:34:57;;;;;;;11.63;3.60;;;23.30;61.90;;;;;;5023549;28;20044;-67
2022/02/09 15:38:08;;;;;;;;;;;22.90;61.60;;;;;;5030904;28;20040;-67
2022/02/09 15:41:35;;;;;;;10.75;4.28;;;22.60;62.00;;;;;;5029732;28;19913;-67
2022/02/09 16:45:23;;;;;;;30.17;11.77;;;13.20;88.00;;;;;;5033104;28;20408;-67
2022/02/09 16:48:30;;;;;;;20.55;6.00;;;13.00;89.80;;;;;;5033228;28;20117;-67
2022/02/09 16:51:48;;;;;;;15.02;5.80;;;12.70;90.70;;;;;;5032045;28;20119;-67
2022/02/09 17:11:13;;;;;;;40.03;15.88;;;11.90;96.30;;;;;;5032228;28;20048;-66
2022/02/09 17:21:47;;;;;;;26.95;12.80;;;11.30;99.90;;;;;;5032705;28;20495;-66
2022/02/09 17:24:51;;;;;;;25.17;10.35;;;11.10;99.90;;;;;;5033532;28;20052;-66
2022/02/09 17:27:56;;;;;;;23.30;10.95;;;10.90;99.90;;;;;;5031799;28;20045;-66
2022/02/09 17:31:25;;;;;;;29.42;13.80;;;10.80;99.90;;;;;;5031340;28;20064;-66
2022/02/09 17:38:04;;;;;;;27.35;12.77;;;10.60;99.90;;;;;;5032478;28;20522;-67
2022/02/09 17:58:18;;;;;;;27.55;10.18;;;10.20;99.90;;;;;;5030906;28;20515;-68
2022/02/09 18:01:23;;;;;;;25.48;13.02;;;10.10;99.90;;;;;;5031509;28;20494;-69
2022/02/09 18:04:30;;;;;;;22.63;9.65;;;10.00;99.90;;;;;;5031123;28;20408;-68
2022/02/09 18:07:37;;;;;;;19.90;4.95;;;10.00;99.90;;;;;;5030648;28;20068;-69
2022/02/09 18:11:08;;;;;;;22.42;5.35;;;9.90;99.90;;;;;;5031248;28;20053;-69
2022/02/09 18:31:23;;;;;;;22.95;8.02;;;9.70;99.90;;;;;;5032571;28;20503;-68
2022/02/09 18:37:43;;;;;;;45.15;18.13;;;9.70;99.90;;;;;;5030595;28;20396;-69
2022/02/09 18:45:22;;;;;;;27.02;10.60;;;9.30;99.90;;;;;;5030251;28;20048;-68
2022/02/09 18:49:01;;;;;;;26.23;11.07;;;9.20;99.90;;;;;;5030660;28;20052;-68
2022/02/09 19:05:21;;;;;;;30.75;8.77;;;8.90;99.90;;;;;;5031239;28;20396;-68
2022/02/09 19:48:01;;;;;;;22.77;9.95;;;8.40;99.90;;;;;;5030221;28;20044;-68
2022/02/09 19:57:28;;;;;;;17.58;7.80;;;8.20;99.90;;;;;;5034006;28;20048;-68
2022/02/09 20:00:35;;;;;;;27.77;8.15;;;8.20;99.90;;;;;;5033760;28;20040;-68
2022/02/09 20:03:40;;;;;;;20.65;8.38;;;8.20;99.90;;;;;;5033407;28;20052;-68
2022/02/09 20:06:45;;;;;;;27.48;10.70;;;8.10;99.90;;;;;;5033534;28;20499;-68
2022/02/09 20:09:49;;;;;;;34.42;13.02;;;8.10;99.90;;;;;;5032866;28;20052;-66
2022/02/09 20:12:54;;;;;;;31.25;11.95;;;8.00;99.90;;;;;;5033312;28;20040;-68
2022/02/09 20:15:59;;;;;;;27.02;11.02;;;8.00;99.90;;;;;;5033509;28;20045;-68
2022/02/09 20:19:04;;;;;;;25.65;9.43;;;7.80;99.90;;;;;;5032909;28;20044;-68
2022/02/09 20:22:07;;;;;;;22.77;9.75;;;7.70;99.90;;;;;;5033597;28;20045;-68
2022/02/09 20:25:12;;;;;;;32.15;10.95;;;7.70;99.90;;;;;;5034101;28;20052;-68
2022/02/09 20:28:17;;;;;;;22.95;7.53;;;7.60;99.90;;;;;;5034044;28;20044;-68
2022/02/09 20:31:28;;;;;;;25.08;11.00;;;7.60;99.90;;;;;;5033271;28;20060;-68
2022/02/09 20:34:37;;;;;;;26.88;9.77;;;7.60;99.90;;;;;;5033473;28;20045;-68
2022/02/09 20:37:46;;;;;;;40.88;16.88;;;7.60;99.90;;;;;;5033041;28;20515;-68
2022/02/09 20:41:01;;;;;;;28.38;14.20;;;7.60;99.90;;;;;;5033307;28;20044;-68
2022/02/09 20:44:20;;;;;;;28.13;11.40;;;7.60;99.90;;;;;;5033172;28;20048;-68
2022/02/09 20:47:29;;;;;;;44.58;19.55;;;7.60;99.90;;;;;;5033130;28;20484;-68
2022/02/09 20:50:35;;;;;;;35.67;15.13;;;7.60;99.90;;;;;;5032762;28;20519;-68
2022/02/09 20:53:39;;;;;;;67.18;25.33;;;7.60;99.90;;;;;;5032688;28;20040;-68
2022/02/09 20:56:43;;;;;;;28.73;13.05;;;7.60;99.90;;;;;;5032856;28;20052;-68
2022/02/09 20:59:52;;;;;;;23.23;8.63;;;7.50;99.90;;;;;;5032860;28;20055;-68
2022/02/09 21:15:52;;;;;;;27.92;8.13;;;7.30;99.90;;;;;;5032040;28;20033;-68
2022/02/09 21:19:14;;;;;;;15.52;6.05;;;7.40;99.90;;;;;;5031820;28;20032;-68
2022/02/09 21:55:32;;;;;;;18.13;3.63;;;7.10;99.90;;;;;;5031023;28;20032;-68
2022/02/09 22:55:42;;;;;;;19.38;4.88;;;6.80;99.90;;;;;;5030566;28;20342;-68
2022/02/09 22:58:46;;;;;;;18.85;4.53;;;6.90;99.90;;;;;;5029518;28;20413;-68
2022/02/09 23:01:56;;;;;;;25.08;5.05;;;6.90;99.90;;;;;;5030529;28;20072;-68
2022/02/09 23:14:38;;;;;;;23.80;3.30;;;6.80;99.90;;;;;;5030367;28;20512;-65
2022/02/09 23:54:50;;;;;;;;;;;6.70;99.90;;;;;;5030239;28;20515;-65
